Time;durP1;ratioP1;P1;durP2;ratioP2;P2;SDS_P1;SDS_P2;PMS_P1;PMS_P2;Temp;Humidity;BMP_temperature;BMP_pressure;BME280_temperature;BME280_humidity;BME280_pressure;Samples;Min_cycle;Max_cycle;Signal;HPM_P1;HPM_P2
2022/08/22 00:00:12;;;;;;;6.38;2.10;;;;;;;;;;5094879;28;20374;-82
2022/08/22 00:02:57;;;;;;;10.35;2.80;;;;;;;;;;5076867;28;20382;-82
2022/08/22 00:05:29;;;;;;;8.55;2.42;;;;;;;;;;5095058;28;20460;-82
2022/08/22 00:07:55;;;;;;;;;;;;;;;;;;5100053;28;20377;-82
2022/08/22 00:10:23;;;;;;;8.52;2.30;;;;;;;;;;5114949;28;19943;-82
2022/08/22 00:12:53;;;;;;;7.75;2.95;;;;;;;;;;5115621;28;20026;-82
2022/08/22 00:15:32;;;;;;;13.68;2.85;;;;;;;;;;5114818;28;20051;-82
2022/08/22 00:18:15;;;;;;;9.70;2.97;;;;;;;;;;5114772;28;20019;-82
2022/08/22 00:20:45;;;;;;;11.75;3.40;;;;;;;;;;5114846;28;20024;-82
2022/08/22 00:23:16;;;;;;;11.63;3.30;;;;;;;;;;5114828;28;20428;-82
2022/08/22 00:25:42;;;;;;;10.35;3.50;;;;;;;;;;5114645;28;20019;-82
2022/08/22 00:28:27;;;;;;;10.90;3.20;;;;;;;;;;5096242;28;20030;-82
2022/08/22 00:31:09;;;;;;;6.38;2.92;;;;;;;;;;5096074;28;20123;-82
2022/08/22 00:33:35;;;;;;;;;;;;;;;;;;5114894;28;20094;-82
2022/08/22 00:36:06;;;;;;;9.70;3.22;;;;;;;;;;5114631;28;19970;-82
2022/08/22 00:38:37;;;;;;;10.30;3.13;;;;;;;;;;5114276;28;20023;-83
2022/08/22 00:41:07;;;;;;;18.02;3.38;;;;;;;;;;5114341;28;20081;-82
2022/08/22 00:44:12;;;;;;;8.32;2.90;;;;;;;;;;5095972;28;20055;-82
2022/08/22 00:46:56;;;;;;;12.35;3.00;;;;;;;;;;5025079;28;20435;-82
2022/08/22 00:49:36;;;;;;;10.23;2.97;;;;;;;;;;5011776;28;20037;-82
2022/08/22 00:52:11;;;;;;;11.20;2.97;;;;;;;;;;5069031;28;20111;-82
2022/08/22 00:54:40;;;;;;;8.02;3.20;;;;;;;;;;5093838;28;20031;-82
2022/08/22 00:57:25;;;;;;;11.98;3.15;;;;;;;;;;5093580;28;20047;-82
2022/08/22 01:00:12;;;;;;;8.80;3.60;;;;;;;;;;5093878;28;20024;-82
2022/08/22 01:02:50;;;;;;;9.88;3.05;;;;;;;;;;5093877;28;20527;-82
2022/08/22 01:05:43;;;;;;;7.15;2.75;;;;;;;;;;5075370;28;20169;-82
2022/08/22 01:08:27;;;;;;;10.07;3.28;;;;;;;;;;5093621;28;20441;-82
2022/08/22 01:10:59;;;;;;;9.77;2.67;;;;;;;;;;5093369;28;20044;-82
2022/08/22 01:13:44;;;;;;;11.10;3.28;;;;;;;;;;5093415;28;20028;-82
2022/08/22 01:16:20;;;;;;;11.75;4.40;;;;;;;;;;5093595;28;20463;-82
2022/08/22 01:19:08;;;;;;;11.45;2.83;;;;;;;;;;5093008;28;20016;-82
2022/08/22 01:21:55;;;;;;;11.80;3.50;;;;;;;;;;5093162;28;20538;-82
2022/08/22 01:25:16;;;;;;;7.40;2.60;;;;;;;;;;5093223;28;20028;-82
2022/08/22 01:27:36;;;;;;;12.90;2.72;;;;;;;;;;5092139;28;20028;-83
2022/08/22 01:30:19;;;;;;;8.65;2.60;;;;;;;;;;5092930;28;20438;-82
2022/08/22 01:33:09;;;;;;;13.77;2.83;;;;;;;;;;5092902;28;20028;-82
2022/08/22 01:35:58;;;;;;;11.43;3.35;;;;;;;;;;5093061;28;20027;-82
2022/08/22 01:38:43;;;;;;;8.65;2.65;;;;;;;;;;5092346;28;20032;-82
2022/08/22 01:41:27;;;;;;;8.65;3.10;;;;;;;;;;5092985;28;20482;-82
2022/08/22 01:43:56;;;;;;;5.88;2.63;;;;;;;;;;5092887;28;20046;-82
2022/08/22 01:46:22;;;;;;;9.25;2.70;;;;;;;;;;5074587;28;20494;-82
2022/08/22 01:48:57;;;;;;;10.15;2.65;;;;;;;;;;5092537;28;20024;-82
2022/08/22 01:51:23;;;;;;;9.77;2.50;;;;;;;;;;5092497;28;20024;-82
2022/08/22 01:54:13;;;;;;;5.82;2.50;;;;;;;;;;5092525;28;20020;-82
2022/08/22 01:56:41;;;;;;;8.68;2.45;;;;;;;;;;5084493;28;20043;-82
2022/08/22 01:59:13;;;;;;;8.90;2.50;;;;;;;;;;5074168;28;20047;-82
2022/08/22 02:01:58;;;;;;;8.27;2.78;;;;;;;;;;5092480;28;20031;-82
2022/08/22 02:04:43;;;;;;;10.68;2.97;;;;;;;;;;5092419;28;20425;-82
2022/08/22 02:07:27;;;;;;;10.13;2.60;;;;;;;;;;5092615;28;20024;-82
2022/08/22 02:10:02;;;;;;;11.43;2.88;;;;;;;;;;5092155;28;20332;-82
2022/08/22 02:12:31;;;;;;;11.35;2.30;;;;;;;;;;5092983;28;20074;-82
2022/08/22 02:15:04;;;;;;;6.97;2.22;;;;;;;;;;5092286;28;20077;-82
2022/08/22 02:17:47;;;;;;;12.77;2.55;;;;;;;;;;5092506;28;20031;-82
2022/08/22 02:20:16;;;;;;;12.45;3.00;;;;;;;;;;5092508;28;20382;-82
2022/08/22 02:22:51;;;;;;;10.15;2.38;;;;;;;;;;5092263;28;20378;-82
2022/08/22 02:25:21;;;;;;;6.35;2.35;;;;;;;;;;5074465;28;20028;-82
2022/08/22 02:28:05;;;;;;;11.27;2.63;;;;;;;;;;5092122;28;20021;-82
2022/08/22 02:30:53;;;;;;;11.55;2.72;;;;;;;;;;5092348;28;20463;-82
2022/08/22 02:33:29;;;;;;;11.95;2.85;;;;;;;;;;5092225;28;20031;-82
2022/08/22 02:36:01;;;;;;;9.52;2.58;;;;;;;;;;5092344;28;20020;-82
2022/08/22 02:38:31;;;;;;;9.68;2.78;;;;;;;;;;5093906;28;20031;-82
2022/08/22 02:41:07;;;;;;;7.85;2.70;;;;;;;;;;5078159;28;20471;-82
2022/08/22 02:43:51;;;;;;;15.00;3.22;;;;;;;;;;5096571;28;20017;-82
2022/08/22 02:46:30;;;;;;;9.25;2.75;;;;;;;;;;5096483;28;20050;-82
2022/08/22 02:49:06;;;;;;;11.00;2.50;;;;;;;;;;5095946;28;20032;-82
2022/08/22 02:51:51;;;;;;;9.95;2.80;;;;;;;;;;5096229;28;20028;-82
2022/08/22 02:54:25;;;;;;;12.80;3.22;;;;;;;;;;5096076;28;20028;-82
2022/08/22 02:57:02;;;;;;;8.00;2.20;;;;;;;;;;5095869;28;20020;-82
2022/08/22 02:59:37;;;;;;;11.25;2.85;;;;;;;;;;5096083;28;20024;-82
2022/08/22 03:02:22;;;;;;;10.05;2.72;;;;;;;;;;5095912;28;20020;-82
2022/08/22 03:04:51;;;;;;;8.95;2.40;;;;;;;;;;5077648;28;20028;-82
2022/08/22 03:07:20;;;;;;;10.50;2.60;;;;;;;;;;5077611;28;20020;-82
2022/08/22 03:09:59;;;;;;;8.52;2.78;;;;;;;;;;5077804;28;20077;-82
2022/08/22 03:12:44;;;;;;;11.38;2.92;;;;;;;;;;5096592;28;20024;-82
2022/08/22 03:15:19;;;;;;;8.40;2.75;;;;;;;;;;5095688;28;20028;-82
2022/08/22 03:17:59;;;;;;;13.70;2.78;;;;;;;;;;5095838;28;20016;-82
2022/08/22 03:20:46;;;;;;;8.90;2.92;;;;;;;;;;5095731;28;20070;-82
2022/08/22 03:23:20;;;;;;;12.35;2.60;;;;;;;;;;5077195;28;20032;-82
2022/08/22 03:25:46;;;;;;;14.27;3.42;;;;;;;;;;5095450;28;20024;-82
2022/08/22 03:28:20;;;;;;;8.30;2.50;;;;;;;;;;5076880;28;20039;-82
2022/08/22 03:31:15;;;;;;;7.15;2.30;;;;;;;;;;5077043;28;20023;-82
2022/08/22 03:33:42;;;;;;;6.80;2.53;;;;;;;;;;5060469;28;20036;-82
2022/08/22 03:36:23;;;;;;;11.30;2.67;;;;;;;;;;5076942;28;20071;-82
2022/08/22 03:39:09;;;;;;;8.38;2.67;;;;;;;;;;5095397;28;20457;-82
2022/08/22 03:41:38;;;;;;;15.50;2.80;;;;;;;;;;5095752;28;20020;-82
2022/08/22 03:44:16;;;;;;;13.35;3.40;;;;;;;;;;5076855;28;20028;-82
2022/08/22 03:46:52;;;;;;;13.13;3.10;;;;;;;;;;5095257;28;20024;-82
2022/08/22 03:49:36;;;;;;;11.23;3.47;;;;;;;;;;5094393;28;20028;-82
2022/08/22 03:52:08;;;;;;;14.70;4.45;;;;;;;;;;5094983;28;20090;-81
2022/08/22 03:54:52;;;;;;;12.63;3.45;;;;;;;;;;5095198;28;20035;-82
2022/08/22 03:57:37;;;;;;;10.45;3.25;;;;;;;;;;5076502;28;20312;-82
2022/08/22 04:00:17;;;;;;;7.25;3.65;;;;;;;;;;5093813;28;20478;-82
2022/08/22 04:03:03;;;;;;;9.60;3.47;;;;;;;;;;5094244;28;20114;-82
2022/08/22 04:05:48;;;;;;;8.00;3.30;;;;;;;;;;5075970;28;20025;-82
2022/08/22 04:08:14;;;;;;;10.32;3.42;;;;;;;;;;5094455;28;20099;-82
2022/08/22 04:10:50;;;;;;;11.13;3.75;;;;;;;;;;5094357;28;20115;-81
2022/08/22 04:13:16;;;;;;;10.75;3.75;;;;;;;;;;5094595;28;20020;-81
2022/08/22 04:15:53;;;;;;;10.52;3.67;;;;;;;;;;5094357;28;20016;-81
2022/08/22 04:18:28;;;;;;;11.48;3.65;;;;;;;;;;5097110;28;20024;-82
2022/08/22 04:21:09;;;;;;;9.30;3.53;;;;;;;;;;5096339;28;20023;-82
2022/08/22 04:23:42;;;;;;;9.05;3.00;;;;;;;;;;5130206;27;20054;-81
2022/08/22 04:26:11;;;;;;;13.18;3.30;;;;;;;;;;5135157;27;20019;-82
2022/08/22 04:28:39;;;;;;;11.52;3.20;;;;;;;;;;5116651;27;20031;-82
2022/08/22 04:31:08;;;;;;;12.57;3.65;;;;;;;;;;5135262;27;20027;-81
2022/08/22 04:33:38;;;;;;;9.07;3.92;;;;;;;;;;5103336;28;20027;-81
2022/08/22 04:36:08;;;;;;;13.18;5.20;;;;;;;;;;5114464;28;20044;-82
2022/08/22 04:38:41;;;;;;;19.33;3.85;;;;;;;;;;5114438;28;20016;-82
2022/08/22 04:41:25;;;;;;;8.90;3.97;;;;;;;;;;5114343;28;20027;-82
2022/08/22 04:43:54;;;;;;;13.20;4.22;;;;;;;;;;5115825;27;20027;-82
2022/08/22 04:46:26;;;;;;;10.70;4.25;;;;;;;;;;5130887;27;20023;-82
2022/08/22 04:49:13;;;;;;;12.88;4.47;;;;;;;;;;5113978;28;20093;-81
2022/08/22 04:51:56;;;;;;;9.98;4.32;;;;;;;;;;5093771;28;20031;-82
2022/08/22 04:54:29;;;;;;;10.40;4.30;;;;;;;;;;5075375;28;20358;-81
2022/08/22 04:57:10;;;;;;;10.55;3.75;;;;;;;;;;5106714;28;20055;-81
2022/08/22 04:59:37;;;;;;;11.20;3.28;;;;;;;;;;5114030;28;20020;-82
2022/08/22 05:02:05;;;;;;;8.30;3.17;;;;;;;;;;5113928;28;20020;-81
2022/08/22 05:04:37;;;;;;;10.35;3.60;;;;;;;;;;5099536;27;20038;-81
2022/08/22 05:07:03;;;;;;;;;;;;;;;;;;5134889;27;20079;-81
2022/08/22 05:09:32;;;;;;;12.00;3.40;;;;;;;;;;5134383;27;20002;-81
2022/08/22 05:12:06;;;;;;;13.35;3.40;;;;;;;;;;5134603;27;20102;-84
2022/08/22 05:14:32;;;;;;;8.73;3.55;;;;;;;;;;5115840;27;20469;-79
2022/08/22 05:16:59;;;;;;;12.60;3.53;;;;;;;;;;5134162;27;20034;-80
2022/08/22 05:19:29;;;;;;;8.73;2.95;;;;;;;;;;5115682;27;20076;-80
2022/08/22 05:21:56;;;;;;;11.13;3.55;;;;;;;;;;5114049;27;20023;-80
2022/08/22 05:24:25;;;;;;;9.50;3.42;;;;;;;;;;5091551;28;20383;-80
2022/08/22 05:26:52;;;;;;;8.60;3.38;;;;;;;;;;5126669;27;20031;-80
2022/08/22 05:29:21;;;;;;;6.57;2.95;;;;;;;;;;5134101;27;20080;-80
2022/08/22 05:31:49;;;;;;;9.68;2.92;;;;;;;;;;5115558;27;20015;-80
2022/08/22 05:34:19;;;;;;;15.82;3.97;;;;;;;;;;5115489;27;20042;-80
2022/08/22 05:36:52;;;;;;;9.68;3.58;;;;;;;;;;5133812;27;20019;-80
2022/08/22 05:39:20;;;;;;;9.23;3.90;;;;;;;;;;5133938;27;20019;-79
2022/08/22 05:41:46;;;;;;;14.15;4.00;;;;;;;;;;5093020;28;20106;-78
2022/08/22 05:44:17;;;;;;;10.50;4.35;;;;;;;;;;5104521;27;20032;-79
2022/08/22 05:46:46;;;;;;;11.77;3.37;;;;;;;;;;5113378;28;20037;-79
2022/08/22 05:49:21;;;;;;;12.50;3.70;;;;;;;;;;5113507;28;20554;-80
2022/08/22 05:52:02;;;;;;;16.92;3.85;;;;;;;;;;5114338;27;20094;-79
2022/08/22 05:54:32;;;;;;;9.97;3.50;;;;;;;;;;5113482;28;20069;-79
2022/08/22 05:57:18;;;;;;;15.57;3.90;;;;;;;;;;5113348;28;20023;-79
2022/08/22 05:59:45;;;;;;;11.20;3.30;;;;;;;;;;5112563;28;20454;-80
2022/08/22 06:02:14;;;;;;;12.02;3.85;;;;;;;;;;5112976;28;20097;-80
2022/08/22 06:04:50;;;;;;;19.90;4.82;;;;;;;;;;5113475;28;20366;-80
2022/08/22 06:07:27;;;;;;;18.42;4.75;;;;;;;;;;5113222;28;20023;-79
2022/08/22 06:10:08;;;;;;;11.27;3.90;;;;;;;;;;5106447;28;20032;-80
2022/08/22 06:12:34;;;;;;;13.60;3.92;;;;;;;;;;5114175;28;20369;-79
2022/08/22 06:15:04;;;;;;;10.05;3.80;;;;;;;;;;5119995;28;20055;-79
2022/08/22 06:17:34;;;;;;;13.63;3.65;;;;;;;;;;5119887;28;20024;-79
2022/08/22 06:20:00;;;;;;;10.52;4.25;;;;;;;;;;5120146;28;20028;-78
2022/08/22 06:22:27;;;;;;;12.25;4.32;;;;;;;;;;5119767;28;20028;-79
2022/08/22 06:24:55;;;;;;;13.52;4.65;;;;;;;;;;5101609;28;20076;-79
2022/08/22 06:27:25;;;;;;;10.98;4.95;;;;;;;;;;5119967;28;20064;-79
2022/08/22 06:29:55;;;;;;;13.82;4.68;;;;;;;;;;5119325;28;20388;-79
2022/08/22 06:32:23;;;;;;;13.68;5.03;;;;;;;;;;5120334;28;20098;-79
2022/08/22 06:34:52;;;;;;;11.38;4.80;;;;;;;;;;5119595;28;20012;-79
2022/08/22 06:37:22;;;;;;;16.10;4.63;;;;;;;;;;5119733;28;20102;-79
2022/08/22 06:39:51;;;;;;;13.88;4.60;;;;;;;;;;5119753;28;20032;-78
2022/08/22 06:42:21;;;;;;;12.73;5.22;;;;;;;;;;5120207;28;20027;-79
2022/08/22 06:45:00;;;;;;;16.77;5.47;;;;;;;;;;5119780;28;20031;-78
2022/08/22 06:47:29;;;;;;;12.55;4.90;;;;;;;;;;5120312;28;20028;-79
2022/08/22 06:50:00;;;;;;;17.58;4.88;;;;;;;;;;5119580;28;20062;-79
2022/08/22 06:52:28;;;;;;;16.45;5.03;;;;;;;;;;5119719;28;20020;-79
2022/08/22 06:54:59;;;;;;;11.88;4.60;;;;;;;;;;5119850;28;20462;-79
2022/08/22 06:57:42;;;;;;;12.32;4.28;;;;;;;;;;5099373;28;20106;-79
2022/08/22 07:00:11;;;;;;;12.65;4.75;;;;;;;;;;5099468;28;20024;-79
2022/08/22 07:02:46;;;;;;;14.73;5.38;;;;;;;;;;5112062;27;20081;-78
2022/08/22 07:05:19;;;;;;;10.98;5.45;;;;;;;;;;5126623;27;20051;-79
2022/08/22 07:07:45;;;;;;;14.15;4.72;;;;;;;;;;5122272;27;20130;-78
2022/08/22 07:10:15;;;;;;;14.98;5.07;;;;;;;;;;5118823;28;20537;-78
2022/08/22 07:12:46;;;;;;;13.15;5.25;;;;;;;;;;5119896;28;20119;-81
2022/08/22 07:15:31;;;;;;;12.35;4.95;;;;;;;;;;5101731;28;20069;-80
2022/08/22 07:17:59;;;;;;;10.38;4.80;;;;;;;;;;5094873;28;20123;-80
2022/08/22 07:20:35;;;;;;;14.25;4.78;;;;;;;;;;5119878;28;20057;-80
2022/08/22 07:23:04;;;;;;;17.08;5.10;;;;;;;;;;5119628;28;20518;-82
2022/08/22 07:25:30;;;;;;;13.80;4.95;;;;;;;;;;5115216;28;20061;-80
2022/08/22 07:28:02;;;;;;;17.75;5.80;;;;;;;;;;5115868;28;20020;-81
2022/08/22 07:30:39;;;;;;;15.85;4.82;;;;;;;;;;5116068;28;20051;-81
2022/08/22 07:33:11;;;;;;;10.48;4.50;;;;;;;;;;5115894;28;20020;-79
2022/08/22 07:35:43;;;;;;;13.85;4.32;;;;;;;;;;5097531;28;20541;-82
2022/08/22 07:38:21;;;;;;;14.30;4.50;;;;;;;;;;5115678;28;20028;-80
2022/08/22 07:41:11;;;;;;;10.73;4.30;;;;;;;;;;5125733;27;20097;-81
2022/08/22 07:43:46;;;;;;;14.25;4.30;;;;;;;;;;5136174;27;20383;-82
2022/08/22 07:46:17;;;;;;;14.40;4.13;;;;;;;;;;5136126;27;20019;-82
2022/08/22 07:48:49;;;;;;;12.23;4.15;;;;;;;;;;5136161;27;20027;-82
2022/08/22 07:51:17;;;;;;;11.40;4.30;;;;;;;;;;5117760;27;20039;-82
2022/08/22 07:53:45;;;;;;;17.20;3.78;;;;;;;;;;5135919;27;20027;-82
2022/08/22 07:56:17;;;;;;;10.13;4.20;;;;;;;;;;5135849;27;20019;-82
2022/08/22 07:58:43;;;;;;;;;;;;;;;;;;5135929;27;20043;-82
2022/08/22 08:01:14;;;;;;;10.80;3.53;;;;;;;;;;5135872;27;19914;-82
2022/08/22 08:03:40;;;;;;;11.65;3.90;;;;;;;;;;5136065;27;20033;-82
2022/08/22 08:06:07;;;;;;;10.93;4.07;;;;;;;;;;5135692;27;20072;-82
2022/08/22 08:08:40;;;;;;;13.85;4.10;;;;;;;;;;5135692;27;20087;-82
2022/08/22 08:11:09;;;;;;;12.18;4.80;;;;;;;;;;5135572;27;20055;-82
2022/08/22 08:13:37;;;;;;;13.05;4.18;;;;;;;;;;5135693;27;20027;-82
2022/08/22 08:16:06;;;;;;;16.27;4.30;;;;;;;;;;5135699;27;20027;-82
2022/08/22 08:18:34;;;;;;;15.52;4.22;;;;;;;;;;5135649;27;20023;-82
2022/08/22 08:21:02;;;;;;;10.60;3.53;;;;;;;;;;5135238;27;20022;-82
2022/08/22 08:23:30;;;;;;;11.00;3.60;;;;;;;;;;5131109;27;20094;-82
2022/08/22 08:26:02;;;;;;;11.27;3.63;;;;;;;;;;5094635;28;20052;-82
2022/08/22 08:28:36;;;;;;;10.95;3.55;;;;;;;;;;5076138;28;20020;-82
2022/08/22 08:31:07;;;;;;;11.70;3.60;;;;;;;;;;5094150;28;20112;-82
2022/08/22 08:33:35;;;;;;;11.57;3.20;;;;;;;;;;5094282;28;20323;-82
2022/08/22 08:36:09;;;;;;;11.18;2.55;;;;;;;;;;5075677;28;20476;-82
2022/08/22 08:38:40;;;;;;;14.95;3.13;;;;;;;;;;5076129;28;20065;-82
2022/08/22 08:41:26;;;;;;;8.43;2.78;;;;;;;;;;5094247;28;20051;-82
2022/08/22 08:44:11;;;;;;;8.77;2.55;;;;;;;;;;5094124;28;20032;-82
2022/08/22 08:46:56;;;;;;;8.00;3.03;;;;;;;;;;5094169;28;20025;-82
2022/08/22 08:49:39;;;;;;;11.45;2.38;;;;;;;;;;5094023;28;20111;-82
2022/08/22 08:52:08;;;;;;;14.88;2.33;;;;;;;;;;5094143;28;20027;-82
2022/08/22 08:54:54;;;;;;;10.18;2.00;;;;;;;;;;5075567;28;20023;-82
2022/08/22 08:57:26;;;;;;;11.07;2.47;;;;;;;;;;5093862;28;20199;-82
2022/08/22 09:00:09;;;;;;;9.70;2.47;;;;;;;;;;5075753;28;20403;-82
2022/08/22 09:02:54;;;;;;;14.18;3.35;;;;;;;;;;5093824;28;20039;-82
2022/08/22 09:05:38;;;;;;;15.82;2.40;;;;;;;;;;5094207;28;20020;-82
2022/08/22 09:08:23;;;;;;;13.13;2.45;;;;;;;;;;5093786;28;20111;-82
2022/08/22 09:10:58;;;;;;;8.25;1.85;;;;;;;;;;5093692;28;20020;-82
2022/08/22 09:13:33;;;;;;;16.15;2.30;;;;;;;;;;5093665;28;20035;-82
2022/08/22 09:16:05;;;;;;;8.07;1.80;;;;;;;;;;5093627;28;20027;-81
2022/08/22 09:18:32;;;;;;;;;;;;;;;;;;5094377;28;20036;-82
2022/08/22 09:21:01;;;;;;;6.30;1.77;;;;;;;;;;5093938;28;19950;-82
2022/08/22 09:23:36;;;;;;;6.82;2.35;;;;;;;;;;5093532;28;20478;-82
2022/08/22 09:26:05;;;;;;;9.68;1.98;;;;;;;;;;5093739;28;20028;-82
2022/08/22 09:28:52;;;;;;;9.43;2.10;;;;;;;;;;5080761;27;20389;-82
2022/08/22 09:31:27;;;;;;;5.28;1.92;;;;;;;;;;5114745;27;20031;-80
2022/08/22 09:33:59;;;;;;;10.18;2.03;;;;;;;;;;5093058;28;20016;-81
2022/08/22 09:36:32;;;;;;;9.73;1.90;;;;;;;;;;5092970;28;20419;-81
2022/08/22 09:38:58;;;;;;;;;;;;;;;;;;5105734;28;20020;-81
2022/08/22 09:41:43;;;;;;;8.23;1.80;;;;;;;;;;5113228;28;19904;-80
2022/08/22 09:44:15;;;;;;;10.68;2.40;;;;;;;;;;5113028;28;20069;-80
2022/08/22 09:46:47;;;;;;;7.82;2.00;;;;;;;;;;5113469;28;20023;-80
2022/08/22 09:49:16;;;;;;;7.22;1.65;;;;;;;;;;5112319;28;20034;-80
2022/08/22 09:51:56;;;;;;;8.68;1.70;;;;;;;;;;5094840;28;20051;-80
2022/08/22 09:54:29;;;;;;;8.85;2.20;;;;;;;;;;5113152;28;20427;-81
2022/08/22 09:57:16;;;;;;;14.68;2.10;;;;;;;;;;5095039;28;20111;-81
2022/08/22 09:59:57;;;;;;;11.73;2.35;;;;;;;;;;5113328;28;20407;-81
2022/08/22 10:02:29;;;;;;;5.45;1.70;;;;;;;;;;5094317;28;20038;-82
2022/08/22 10:05:07;;;;;;;9.70;1.92;;;;;;;;;;5094793;28;20034;-82
2022/08/22 10:07:39;;;;;;;11.43;2.55;;;;;;;;;;5111288;28;20028;-81
2022/08/22 10:10:05;;;;;;;9.57;2.22;;;;;;;;;;5074094;28;20032;-84
2022/08/22 10:12:52;;;;;;;8.05;2.13;;;;;;;;;;5091815;28;20415;-79
2022/08/22 10:15:22;;;;;;;11.70;2.00;;;;;;;;;;5073743;28;20039;-79
2022/08/22 10:17:48;;;;;;;9.70;2.05;;;;;;;;;;5089238;28;20027;-79
2022/08/22 10:20:23;;;;;;;11.27;2.03;;;;;;;;;;5072755;28;20389;-79
2022/08/22 10:22:52;;;;;;;7.63;2.20;;;;;;;;;;5087699;28;20404;-80
2022/08/22 10:25:39;;;;;;;5.05;1.50;;;;;;;;;;5073911;28;20066;-80
2022/08/22 10:28:30;;;;;;;7.60;1.73;;;;;;;;;;5092348;28;20028;-80
2022/08/22 10:31:14;;;;;;;6.43;1.75;;;;;;;;;;5082418;28;20451;-80
2022/08/22 10:33:50;;;;;;;6.45;1.95;;;;;;;;;;5091588;28;20253;-80
2022/08/22 10:36:20;;;;;;;8.10;1.88;;;;;;;;;;5071807;28;20378;-79
2022/08/22 10:38:47;;;;;;;5.50;1.45;;;;;;;;;;5072151;28;20024;-80
2022/08/22 10:41:35;;;;;;;5.72;1.42;;;;;;;;;;5071866;28;20029;-80
2022/08/22 10:44:06;;;;;;;12.02;2.70;;;;;;;;;;5072024;28;20024;-79
2022/08/22 10:47:05;;;;;;;6.45;1.92;;;;;;;;;;5071772;28;20025;-79
2022/08/22 10:49:38;;;;;;;7.80;1.70;;;;;;;;;;5019944;28;20039;-80
2022/08/22 10:52:23;;;;;;;10.63;1.92;;;;;;;;;;5073604;28;20055;-83
2022/08/22 10:54:55;;;;;;;6.63;2.03;;;;;;;;;;5091788;28;20024;-82
2022/08/22 10:57:31;;;;;;;5.20;1.52;;;;;;;;;;5091758;28;20048;-83
2022/08/22 11:00:27;;;;;;;9.55;1.95;;;;;;;;;;5079170;28;20110;-83
2022/08/22 11:03:01;;;;;;;8.02;1.88;;;;;;;;;;5085084;28;20480;-83
2022/08/22 11:05:33;;;;;;;8.35;1.73;;;;;;;;;;5077576;28;20035;-82
2022/08/22 11:08:18;;;;;;;7.45;1.90;;;;;;;;;;5095739;28;20525;-81
2022/08/22 11:10:53;;;;;;;6.35;1.95;;;;;;;;;;5075879;28;20020;-83
2022/08/22 11:13:28;;;;;;;5.97;1.70;;;;;;;;;;5094137;28;20026;-82
2022/08/22 11:15:58;;;;;;;6.22;1.75;;;;;;;;;;5094898;28;20408;-83
2022/08/22 11:18:30;;;;;;;6.53;1.70;;;;;;;;;;5095681;28;20392;-82
2022/08/22 11:21:01;;;;;;;8.20;1.83;;;;;;;;;;5095709;28;20481;-83
2022/08/22 11:23:38;;;;;;;4.90;1.70;;;;;;;;;;5077118;28;20406;-83
2022/08/22 11:26:04;;;;;;;8.02;2.17;;;;;;;;;;5094520;28;20051;-83
2022/08/22 11:28:34;;;;;;;6.68;1.90;;;;;;;;;;5076622;28;20059;-83
2022/08/22 11:31:20;;;;;;;5.68;1.58;;;;;;;;;;5095220;28;20105;-82
2022/08/22 11:33:54;;;;;;;7.60;2.17;;;;;;;;;;5074977;28;20016;-83
2022/08/22 11:36:26;;;;;;;7.70;1.58;;;;;;;;;;5083300;28;20090;-83
2022/08/22 11:38:52;;;;;;;;;;;;;;;;;;5095431;28;20028;-82
2022/08/22 11:41:25;;;;;;;5.80;1.88;;;;;;;;;;5094915;28;20321;-82
2022/08/22 11:43:59;;;;;;;6.00;1.80;;;;;;;;;;5080100;28;20022;-82
2022/08/22 11:46:29;;;;;;;6.82;2.13;;;;;;;;;;5097880;28;20438;-83
2022/08/22 11:49:05;;;;;;;9.13;1.65;;;;;;;;;;5095185;28;20021;-82
2022/08/22 11:51:46;;;;;;;11.65;2.25;;;;;;;;;;5092654;28;20417;-82
2022/08/22 11:54:26;;;;;;;10.70;1.92;;;;;;;;;;5095121;28;20020;-82
2022/08/22 11:57:07;;;;;;;11.05;2.22;;;;;;;;;;5062665;28;20029;-83
2022/08/22 11:59:56;;;;;;;10.13;2.20;;;;;;;;;;5073391;28;20035;-82
2022/08/22 12:02:34;;;;;;;6.85;1.90;;;;;;;;;;5076139;28;20444;-82
2022/08/22 12:05:09;;;;;;;7.05;2.15;;;;;;;;;;5094727;28;20142;-82
2022/08/22 12:07:39;;;;;;;6.93;1.85;;;;;;;;;;5076513;28;20113;-82
2022/08/22 12:10:16;;;;;;;5.13;1.83;;;;;;;;;;5092510;28;20028;-81
2022/08/22 12:12:55;;;;;;;6.95;1.65;;;;;;;;;;5095333;28;20032;-82
2022/08/22 12:15:23;;;;;;;4.25;1.48;;;;;;;;;;5094735;28;20028;-85
2022/08/22 12:18:02;;;;;;;5.22;1.60;;;;;;;;;;5076429;28;20071;-86
2022/08/22 12:20:47;;;;;;;6.85;2.20;;;;;;;;;;5076385;28;20078;-86
2022/08/22 12:23:19;;;;;;;4.88;1.50;;;;;;;;;;5094704;28;20102;-83
2022/08/22 12:25:45;;;;;;;;;;;;;;;;;;5094857;28;20099;-81
2022/08/22 12:28:11;;;;;;;8.95;1.88;;;;;;;;;;5078591;28;19963;-81
2022/08/22 12:30:43;;;;;;;7.45;1.80;;;;;;;;;;5073019;28;20055;-81
2022/08/22 12:33:15;;;;;;;4.90;1.70;;;;;;;;;;5091107;28;20303;-81
2022/08/22 12:35:44;;;;;;;12.00;1.92;;;;;;;;;;5075947;28;20032;-80
2022/08/22 12:38:18;;;;;;;5.85;1.77;;;;;;;;;;5094054;28;20055;-80
2022/08/22 12:40:44;;;;;;;8.50;2.45;;;;;;;;;;5094383;28;20442;-81
2022/08/22 12:43:22;;;;;;;6.70;1.70;;;;;;;;;;5093447;28;20032;-80
2022/08/22 12:45:48;;;;;;;6.50;1.80;;;;;;;;;;5093624;28;20415;-80
2022/08/22 12:48:42;;;;;;;6.07;2.17;;;;;;;;;;5093948;28;20081;-80
2022/08/22 12:51:21;;;;;;;5.85;1.80;;;;;;;;;;5072514;28;20068;-80
2022/08/22 12:53:59;;;;;;;7.70;1.70;;;;;;;;;;5075184;28;20083;-80
2022/08/22 12:56:45;;;;;;;5.55;1.60;;;;;;;;;;5093389;28;20035;-80
2022/08/22 12:59:17;;;;;;;5.70;1.50;;;;;;;;;;5092492;28;20103;-80
2022/08/22 13:01:44;;;;;;;3.40;1.33;;;;;;;;;;5114365;28;20012;-80
2022/08/22 13:04:14;;;;;;;6.97;1.80;;;;;;;;;;5113917;28;20020;-81
2022/08/22 13:06:41;;;;;;;6.43;1.48;;;;;;;;;;5114033;28;20094;-81
2022/08/22 13:09:18;;;;;;;7.78;1.65;;;;;;;;;;5113892;28;20016;-81
2022/08/22 13:11:45;;;;;;;6.65;1.55;;;;;;;;;;5114329;28;20043;-81
2022/08/22 13:14:14;;;;;;;8.10;1.90;;;;;;;;;;5113581;28;20032;-81
2022/08/22 13:16:47;;;;;;;13.32;2.47;;;;;;;;;;5095373;28;20085;-81
2022/08/22 13:19:17;;;;;;;5.38;1.60;;;;;;;;;;5113818;28;20020;-81
2022/08/22 13:21:44;;;;;;;4.65;1.60;;;;;;;;;;5113973;28;20028;-81
2022/08/22 13:24:12;;;;;;;5.97;1.60;;;;;;;;;;5112742;28;20047;-81
2022/08/22 13:26:45;;;;;;;17.80;2.40;;;;;;;;;;5113672;28;20465;-81
2022/08/22 13:29:16;;;;;;;9.75;1.73;;;;;;;;;;5113143;28;20024;-81
2022/08/22 13:31:43;;;;;;;8.23;1.90;;;;;;;;;;5113765;28;20333;-81
2022/08/22 13:34:12;;;;;;;5.72;1.60;;;;;;;;;;5113401;28;20272;-81
2022/08/22 13:36:47;;;;;;;5.85;1.75;;;;;;;;;;5113721;28;20023;-81
2022/08/22 13:39:16;;;;;;;6.15;2.03;;;;;;;;;;5113503;28;20031;-81
2022/08/22 13:41:47;;;;;;;6.13;1.63;;;;;;;;;;5113498;28;20024;-81
2022/08/22 13:44:33;;;;;;;9.73;2.35;;;;;;;;;;5113324;28;20465;-81
2022/08/22 13:47:06;;;;;;;7.88;1.60;;;;;;;;;;5102453;28;20071;-81
2022/08/22 13:49:34;;;;;;;8.05;1.75;;;;;;;;;;5113569;28;20446;-81
2022/08/22 13:52:00;;;;;;;7.20;2.00;;;;;;;;;;5113166;28;20023;-81
2022/08/22 13:54:26;;;;;;;5.45;1.70;;;;;;;;;;5113059;28;20020;-81
2022/08/22 13:57:10;;;;;;;9.70;1.70;;;;;;;;;;5107135;28;20478;-81
2022/08/22 13:59:45;;;;;;;9.52;1.80;;;;;;;;;;5077140;28;20024;-85
2022/08/22 14:02:31;;;;;;;7.45;1.67;;;;;;;;;;5092410;28;20028;-85
2022/08/22 14:05:01;;;;;;;5.25;1.70;;;;;;;;;;5071356;28;20051;-84
2022/08/22 14:07:31;;;;;;;5.25;1.80;;;;;;;;;;5092558;28;20056;-85
2022/08/22 14:10:02;;;;;;;10.18;2.15;;;;;;;;;;5092573;28;20462;-85
2022/08/22 14:12:30;;;;;;;8.60;2.00;;;;;;;;;;5092433;28;20024;-85
2022/08/22 14:14:58;;;;;;;7.05;1.77;;;;;;;;;;5074206;28;20265;-84
2022/08/22 14:17:29;;;;;;;6.22;1.60;;;;;;;;;;5092358;28;20071;-85
2022/08/22 14:20:01;;;;;;;5.32;1.40;;;;;;;;;;5092594;28;20039;-83
2022/08/22 14:22:30;;;;;;;8.75;1.90;;;;;;;;;;5092064;28;20783;-83
2022/08/22 14:24:58;;;;;;;6.47;1.80;;;;;;;;;;5092089;28;20025;-83
2022/08/22 14:27:33;;;;;;;6.03;2.17;;;;;;;;;;5092112;28;20020;-82
2022/08/22 14:30:01;;;;;;;4.72;1.38;;;;;;;;;;5091885;28;20024;-83
2022/08/22 14:32:33;;;;;;;7.72;1.63;;;;;;;;;;5092235;28;20466;-83
2022/08/22 14:35:22;;;;;;;6.15;1.92;;;;;;;;;;5114235;28;20107;-83
2022/08/22 14:37:51;;;;;;;6.20;1.90;;;;;;;;;;5067636;28;20475;-83
2022/08/22 14:40:22;;;;;;;6.25;1.70;;;;;;;;;;5095493;28;20345;-83
2022/08/22 14:42:53;;;;;;;10.63;1.83;;;;;;;;;;5096028;28;20026;-82
2022/08/22 14:45:26;;;;;;;6.50;1.80;;;;;;;;;;5099694;28;20097;-83
2022/08/22 14:47:54;;;;;;;5.95;1.75;;;;;;;;;;5092373;28;20254;-83
2022/08/22 14:50:39;;;;;;;11.15;2.45;;;;;;;;;;5077811;28;20086;-81
2022/08/22 14:53:11;;;;;;;10.70;2.00;;;;;;;;;;5087566;28;20029;-83
2022/08/22 14:55:38;;;;;;;7.72;2.10;;;;;;;;;;5084110;28;20661;-83
2022/08/22 14:58:08;;;;;;;8.52;1.50;;;;;;;;;;5096563;28;20443;-83
2022/08/22 15:00:39;;;;;;;10.85;1.90;;;;;;;;;;5082617;28;20443;-83
2022/08/22 15:03:10;;;;;;;4.88;1.70;;;;;;;;;;5104342;28;20023;-83
2022/08/22 15:05:40;;;;;;;10.07;2.33;;;;;;;;;;5116071;28;20047;-82
2022/08/22 15:08:08;;;;;;;6.32;2.05;;;;;;;;;;5095591;28;20020;-83
2022/08/22 15:10:34;;;;;;;6.95;1.90;;;;;;;;;;5095643;28;20027;-82
2022/08/22 15:13:02;;;;;;;4.45;1.70;;;;;;;;;;5107679;28;20030;-81
2022/08/22 15:15:28;;;;;;;8.23;2.00;;;;;;;;;;5098088;28;20023;-80
2022/08/22 15:17:55;;;;;;;9.50;1.90;;;;;;;;;;5087372;28;20013;-79
2022/08/22 15:20:23;;;;;;;7.20;2.05;;;;;;;;;;5077147;28;20340;-82